sensor_id;sensor_type;location;lat;lon;timestamp;pressure;altitude;pressure_sealevel;temperature;humidity
788;BME280;16074;42.708;23.312;2023-05-07T00:01:18;141271.75;;;12.26;100.00
788;BME280;16074;42.708;23.312;2023-05-07T00:03:47;141269.34;;;12.25;100.00
788;BME280;16074;42.708;23.312;2023-05-07T00:06:16;141257.28;;;12.20;100.00
788;BME280;16074;42.708;23.312;2023-05-07T00:08:45;141211.50;;;12.01;100.00
788;BME280;16074;42.708;23.312;2023-05-07T00:11:13;141158.44;;;11.80;100.00
788;BME280;16074;42.708;23.312;2023-05-07T00:13:41;141157.25;;;11.79;100.00
788;BME280;16074;42.708;23.312;2023-05-07T00:16:09;141193.38;;;11.94;100.00
788;BME280;16074;42.708;23.312;2023-05-07T00:18:39;141182.53;;;11.89;100.00
788;BME280;16074;42.708;23.312;2023-05-07T00:21:09;141184.97;;;11.90;100.00
788;BME280;16074;42.708;23.312;2023-05-07T00:23:37;141189.78;;;11.92;100.00
788;BME280;16074;42.708;23.312;2023-05-07T00:26:05;141187.38;;;11.91;100.00
788;BME280;16074;42.708;23.312;2023-05-07T00:28:34;141184.97;;;11.90;100.00
788;BME280;16074;42.708;23.312;2023-05-07T00:31:02;141197.03;;;11.95;100.00
788;BME280;16074;42.708;23.312;2023-05-07T00:33:30;141207.84;;;12.00;100.00
788;BME280;16074;42.708;23.312;2023-05-07T00:35:58;141189.78;;;11.92;100.00
788;BME280;16074;42.708;23.312;2023-05-07T00:38:29;141188.56;;;11.92;100.00
788;BME280;16074;42.708;23.312;2023-05-07T00:40:57;141193.38;;;11.94;100.00
788;BME280;16074;42.708;23.312;2023-05-07T00:43:25;141201.84;;;11.97;100.00
788;BME280;16074;42.708;23.312;2023-05-07T00:45:54;141199.44;;;11.96;100.00
788;BME280;16074;42.708;23.312;2023-05-07T00:48:22;141203.03;;;11.98;100.00
788;BME280;16074;42.708;23.312;2023-05-07T00:50:51;141190.97;;;11.93;100.00
788;BME280;16074;42.708;23.312;2023-05-07T00:53:20;141188.56;;;11.92;100.00
788;BME280;16074;42.708;23.312;2023-05-07T00:55:50;141186.13;;;11.91;100.00
788;BME280;16074;42.708;23.312;2023-05-07T00:58:19;141169.31;;;11.84;100.00
788;BME280;16074;42.708;23.312;2023-05-07T01:00:47;141164.47;;;11.82;100.00
788;BME280;16074;42.708;23.312;2023-05-07T01:03:17;141171.72;;;11.85;100.00
788;BME280;16074;42.708;23.312;2023-05-07T01:05:46;141164.47;;;11.82;100.00
788;BME280;16074;42.708;23.312;2023-05-07T01:08:16;141154.84;;;11.78;100.00
788;BME280;16074;42.708;23.312;2023-05-07T01:10:46;141146.38;;;11.75;100.00
788;BME280;16074;42.708;23.312;2023-05-07T01:13:16;141115.03;;;11.62;100.00
788;BME280;16074;42.708;23.312;2023-05-07T01:15:44;141086.09;;;11.50;100.00
788;BME280;16074;42.708;23.312;2023-05-07T01:18:13;141089.69;;;11.51;100.00
788;BME280;16074;42.708;23.312;2023-05-07T01:20:42;141080.03;;;11.47;100.00
788;BME280;16074;42.708;23.312;2023-05-07T01:23:12;141072.81;;;11.44;100.00
788;BME280;16074;42.708;23.312;2023-05-07T01:25:40;141067.97;;;11.42;100.00
788;BME280;16074;42.708;23.312;2023-05-07T01:28:10;141017.41;;;11.21;100.00
788;BME280;16074;42.708;23.312;2023-05-07T01:30:42;141029.44;;;11.26;100.00
788;BME280;16074;42.708;23.312;2023-05-07T01:33:15;141022.22;;;11.23;100.00
788;BME280;16074;42.708;23.312;2023-05-07T01:35:48;141022.22;;;11.23;100.00
788;BME280;16074;42.708;23.312;2023-05-07T01:38:20;141000.53;;;11.14;100.00
788;BME280;16074;42.708;23.312;2023-05-07T01:40:49;141007.75;;;11.17;100.00
788;BME280;16074;42.708;23.312;2023-05-07T01:43:19;141007.75;;;11.17;100.00
788;BME280;16074;42.708;23.312;2023-05-07T01:45:48;141012.59;;;11.19;100.00
788;BME280;16074;42.708;23.312;2023-05-07T01:48:17;140987.25;;;11.09;100.00
788;BME280;16074;42.708;23.312;2023-05-07T01:50:47;140996.91;;;11.13;100.00
788;BME280;16074;42.708;23.312;2023-05-07T01:53:15;140994.47;;;11.12;100.00
788;BME280;16074;42.708;23.312;2023-05-07T01:55:45;140983.66;;;11.07;100.00
788;BME280;16074;42.708;23.312;2023-05-07T01:58:15;140972.84;;;11.03;100.00
788;BME280;16074;42.708;23.312;2023-05-07T02:00:43;140978.84;;;11.05;100.00
788;BME280;16074;42.708;23.312;2023-05-07T02:03:11;140966.78;;;11.00;100.00
788;BME280;16074;42.708;23.312;2023-05-07T02:05:55;140960.78;;;10.98;100.00
788;BME280;16074;42.708;23.312;2023-05-07T02:08:33;140969.19;;;11.01;100.00
788;BME280;16074;42.708;23.312;2023-05-07T02:11:03;140948.75;;;10.93;100.00
788;BME280;16074;42.708;23.312;2023-05-07T02:13:32;140957.16;;;10.96;100.00
788;BME280;16074;42.708;23.312;2023-05-07T02:16:01;140937.88;;;10.88;100.00
788;BME280;16074;42.708;23.312;2023-05-07T02:18:30;140878.88;;;10.64;100.00
788;BME280;16074;42.708;23.312;2023-05-07T02:20:58;140911.38;;;10.77;100.00
788;BME280;16074;42.708;23.312;2023-05-07T02:23:27;140928.22;;;10.84;100.00
788;BME280;16074;42.708;23.312;2023-05-07T02:25:55;140904.19;;;10.74;100.00
788;BME280;16074;42.708;23.312;2023-05-07T02:28:25;140905.38;;;10.75;100.00
788;BME280;16074;42.708;23.312;2023-05-07T02:30:58;140889.72;;;10.68;100.00
788;BME280;16074;42.708;23.312;2023-05-07T02:33:28;140894.53;;;10.70;100.00
788;BME280;16074;42.708;23.312;2023-05-07T02:36:05;140881.28;;;10.65;100.00
788;BME280;16074;42.708;23.312;2023-05-07T02:38:35;140872.88;;;10.62;100.00
788;BME280;16074;42.708;23.312;2023-05-07T02:41:04;140889.72;;;10.68;100.00
788;BME280;16074;42.708;23.312;2023-05-07T02:43:34;140890.91;;;10.69;100.00
788;BME280;16074;42.708;23.312;2023-05-07T02:46:03;140857.19;;;10.55;100.00
788;BME280;16074;42.708;23.312;2023-05-07T02:48:34;140874.03;;;10.62;100.00
788;BME280;16074;42.708;23.312;2023-05-07T02:51:03;140868.03;;;10.60;100.00
788;BME280;16074;42.708;23.312;2023-05-07T02:53:33;140846.38;;;10.51;100.00
788;BME280;16074;42.708;23.312;2023-05-07T02:56:02;140847.53;;;10.51;100.00
788;BME280;16074;42.708;23.312;2023-05-07T02:58:30;140865.63;;;10.59;100.00
788;BME280;16074;42.708;23.312;2023-05-07T03:01:02;140866.81;;;10.59;100.00
788;BME280;16074;42.708;23.312;2023-05-07T03:03:38;140882.50;;;10.66;100.00
788;BME280;16074;42.708;23.312;2023-05-07T03:06:06;140883.69;;;10.66;100.00
788;BME280;16074;42.708;23.312;2023-05-07T03:08:35;140900.53;;;10.73;100.00
788;BME280;16074;42.708;23.312;2023-05-07T03:11:03;140910.19;;;10.77;100.00
788;BME280;16074;42.708;23.312;2023-05-07T03:13:31;140878.88;;;10.64;100.00
788;BME280;16074;42.708;23.312;2023-05-07T03:16:01;140763.28;;;10.16;100.00
788;BME280;16074;42.708;23.312;2023-05-07T03:18:29;140806.66;;;10.34;100.00
788;BME280;16074;42.708;23.312;2023-05-07T03:20:58;140781.34;;;10.24;100.00
788;BME280;16074;42.708;23.312;2023-05-07T03:23:26;140782.56;;;10.24;100.00
788;BME280;16074;42.708;23.312;2023-05-07T03:25:55;140807.81;;;10.35;100.00
788;BME280;16074;42.708;23.312;2023-05-07T03:28:23;140819.88;;;10.40;100.00
788;BME280;16074;42.708;23.312;2023-05-07T03:30:57;140839.13;;;10.48;100.00
788;BME280;16074;42.708;23.312;2023-05-07T03:33:27;140840.31;;;10.48;100.00
788;BME280;16074;42.708;23.312;2023-05-07T03:35:55;140787.38;;;10.26;100.00
788;BME280;16074;42.708;23.312;2023-05-07T03:38:25;140777.75;;;10.22;100.00
788;BME280;16074;42.708;23.312;2023-05-07T03:40:54;140734.41;;;10.04;100.00
788;BME280;16074;42.708;23.312;2023-05-07T03:43:22;140730.81;;;10.03;100.00
788;BME280;16074;42.708;23.312;2023-05-07T03:45:58;140701.88;;;9.91;100.00
788;BME280;16074;42.708;23.312;2023-05-07T03:48:29;140735.63;;;10.05;100.00
788;BME280;16074;42.708;23.312;2023-05-07T03:50:58;140746.44;;;10.09;100.00
788;BME280;16074;42.708;23.312;2023-05-07T03:53:31;140770.53;;;10.19;100.00
788;BME280;16074;42.708;23.312;2023-05-07T03:55:59;140768.09;;;10.18;100.00
788;BME280;16074;42.708;23.312;2023-05-07T03:58:31;140781.34;;;10.24;100.00
788;BME280;16074;42.708;23.312;2023-05-07T04:01:04;140736.81;;;10.05;100.00
788;BME280;16074;42.708;23.312;2023-05-07T04:03:33;140762.13;;;10.16;100.00
788;BME280;16074;42.708;23.312;2023-05-07T04:06:03;140756.06;;;10.13;100.00
788;BME280;16074;42.708;23.312;2023-05-07T04:08:33;140771.75;;;10.20;100.00
788;BME280;16074;42.708;23.312;2023-05-07T04:11:03;140789.78;;;10.27;100.00
788;BME280;16074;42.708;23.312;2023-05-07T04:13:33;140788.56;;;10.27;100.00
788;BME280;16074;42.708;23.312;2023-05-07T04:16:03;140747.66;;;10.10;100.00
788;BME280;16074;42.708;23.312;2023-05-07T04:18:36;140660.94;;;9.74;100.00
788;BME280;16074;42.708;23.312;2023-05-07T04:21:04;140700.69;;;9.90;100.00
788;BME280;16074;42.708;23.312;2023-05-07T04:23:36;140715.09;;;9.96;100.00
788;BME280;16074;42.708;23.312;2023-05-07T04:26:08;140703.09;;;9.91;100.00
788;BME280;16074;42.708;23.312;2023-05-07T04:28:39;140715.09;;;9.96;100.00
788;BME280;16074;42.708;23.312;2023-05-07T04:31:08;140742.84;;;10.08;100.00
788;BME280;16074;42.708;23.312;2023-05-07T04:33:39;140756.06;;;10.13;100.00
788;BME280;16074;42.708;23.312;2023-05-07T04:36:10;140772.94;;;10.20;100.00
788;BME280;16074;42.708;23.312;2023-05-07T04:38:46;140783.75;;;10.25;100.00
788;BME280;16074;42.708;23.312;2023-05-07T04:41:17;140818.69;;;10.39;100.00
788;BME280;16074;42.708;23.312;2023-05-07T04:43:45;140842.72;;;10.49;100.00
788;BME280;16074;42.708;23.312;2023-05-07T04:46:15;140842.72;;;10.49;100.00
788;BME280;16074;42.708;23.312;2023-05-07T04:48:45;140823.50;;;10.41;100.00
788;BME280;16074;42.708;23.312;2023-05-07T04:51:14;140769.34;;;10.19;100.00
788;BME280;16074;42.708;23.312;2023-05-07T04:53:42;140780.16;;;10.23;100.00
788;BME280;16074;42.708;23.312;2023-05-07T04:56:10;140768.09;;;10.18;100.00
788;BME280;16074;42.708;23.312;2023-05-07T04:58:41;140810.22;;;10.36;100.00
788;BME280;16074;42.708;23.312;2023-05-07T05:01:10;140831.91;;;10.45;100.00
788;BME280;16074;42.708;23.312;2023-05-07T05:03:40;140872.88;;;10.62;100.00
788;BME280;16074;42.708;23.312;2023-05-07T05:06:10;140849.94;;;10.52;100.00
788;BME280;16074;42.708;23.312;2023-05-07T05:08:38;140849.94;;;10.52;100.00
788;BME280;16074;42.708;23.312;2023-05-07T05:11:08;140877.69;;;10.64;100.00
788;BME280;16074;42.708;23.312;2023-05-07T05:13:36;140882.50;;;10.66;100.00
788;BME280;16074;42.708;23.312;2023-05-07T05:16:11;140911.38;;;10.77;100.00
788;BME280;16074;42.708;23.312;2023-05-07T05:18:40;140929.47;;;10.85;100.00
788;BME280;16074;42.708;23.312;2023-05-07T05:21:12;140969.19;;;11.01;100.00
788;BME280;16074;42.708;23.312;2023-05-07T05:23:41;140994.47;;;11.12;100.00
788;BME280;16074;42.708;23.312;2023-05-07T05:26:11;141035.47;;;11.29;100.00
788;BME280;16074;42.708;23.312;2023-05-07T05:28:40;141055.94;;;11.37;100.00
788;BME280;16074;42.708;23.312;2023-05-07T05:31:08;141107.84;;;11.59;100.00
788;BME280;16074;42.708;23.312;2023-05-07T05:33:37;141140.38;;;11.72;100.00
788;BME280;16074;42.708;23.312;2023-05-07T05:36:09;141175.31;;;11.87;100.00
788;BME280;16074;42.708;23.312;2023-05-07T05:38:39;141189.78;;;11.92;100.00
788;BME280;16074;42.708;23.312;2023-05-07T05:41:09;141217.50;;;12.04;100.00
788;BME280;16074;42.708;23.312;2023-05-07T05:43:37;141229.56;;;12.09;100.00
788;BME280;16074;42.708;23.312;2023-05-07T05:46:06;141235.63;;;12.11;100.00
788;BME280;16074;42.708;23.312;2023-05-07T05:48:35;141229.56;;;12.09;100.00
788;BME280;16074;42.708;23.312;2023-05-07T05:51:05;141282.66;;;12.31;100.00
788;BME280;16074;42.708;23.312;2023-05-07T05:53:33;141339.31;;;12.54;100.00
788;BME280;16074;42.708;23.312;2023-05-07T05:56:04;141409.28;;;12.83;100.00
788;BME280;16074;42.708;23.312;2023-05-07T05:58:33;141437.13;;;12.95;100.00
788;BME280;16074;42.708;23.312;2023-05-07T06:01:05;141466.03;;;13.07;100.00
788;BME280;16074;42.708;23.312;2023-05-07T06:03:35;141486.59;;;13.15;100.00
788;BME280;16074;42.708;23.312;2023-05-07T06:06:08;141528.84;;;13.32;100.00
788;BME280;16074;42.708;23.312;2023-05-07T06:08:37;141572.31;;;13.50;100.00
788;BME280;16074;42.708;23.312;2023-05-07T06:11:07;141613.31;;;13.67;100.00
788;BME280;16074;42.708;23.312;2023-05-07T06:13:37;141629.06;;;13.74;100.00
788;BME280;16074;42.708;23.312;2023-05-07T06:16:06;141606.06;;;13.64;100.00
788;BME280;16074;42.708;23.312;2023-05-07T06:18:35;141591.63;;;13.58;100.00
788;BME280;16074;42.708;23.312;2023-05-07T06:21:04;141653.22;;;13.84;100.00
788;BME280;16074;42.708;23.312;2023-05-07T06:23:34;141671.31;;;13.91;100.00
788;BME280;16074;42.708;23.312;2023-05-07T06:26:04;141712.41;;;14.08;100.00
788;BME280;16074;42.708;23.312;2023-05-07T06:28:38;141719.66;;;14.11;100.00
788;BME280;16074;42.708;23.312;2023-05-07T06:31:11;141732.97;;;14.17;100.00
788;BME280;16074;42.708;23.312;2023-05-07T06:33:41;141729.38;;;14.15;100.00
788;BME280;16074;42.708;23.312;2023-05-07T06:36:10;141737.81;;;14.19;100.00
788;BME280;16074;42.708;23.312;2023-05-07T06:38:39;141772.81;;;14.33;99.41
788;BME280;16074;42.708;23.312;2023-05-07T06:41:07;141810.28;;;14.48;99.28
788;BME280;16074;42.708;23.312;2023-05-07T06:43:39;141851.38;;;14.65;98.63
788;BME280;16074;42.708;23.312;2023-05-07T06:46:24;141917.88;;;14.93;98.60
788;BME280;16074;42.708;23.312;2023-05-07T06:48:52;141961.41;;;15.11;97.05
788;BME280;16074;42.708;23.312;2023-05-07T06:51:20;142008.59;;;15.30;93.14
788;BME280;16074;42.708;23.312;2023-05-07T06:53:49;142038.81;;;15.43;92.56
788;BME280;16074;42.708;23.312;2023-05-07T06:56:17;142050.94;;;15.48;91.04
788;BME280;16074;42.708;23.312;2023-05-07T06:58:48;142090.84;;;15.64;89.98
788;BME280;16074;42.708;23.312;2023-05-07T07:01:17;142129.56;;;15.80;89.30
788;BME280;16074;42.708;23.312;2023-05-07T07:03:45;142198.53;;;16.08;85.39
788;BME280;16074;42.708;23.312;2023-05-07T07:06:14;142234.84;;;16.23;83.55
788;BME280;16074;42.708;23.312;2023-05-07T07:08:42;142272.41;;;16.39;81.11
788;BME280;16074;42.708;23.312;2023-05-07T07:11:14;142366.84;;;16.77;79.77
788;BME280;16074;42.708;23.312;2023-05-07T07:13:43;142428.59;;;17.03;77.53
788;BME280;16074;42.708;23.312;2023-05-07T07:16:13;142488.00;;;17.27;75.48
788;BME280;16074;42.708;23.312;2023-05-07T07:18:41;142492.81;;;17.29;74.57
788;BME280;16074;42.708;23.312;2023-05-07T07:21:09;142517.09;;;17.39;73.31
788;BME280;16074;42.708;23.312;2023-05-07T07:23:38;142598.28;;;17.73;71.57
788;BME280;16074;42.708;23.312;2023-05-07T07:26:06;142724.41;;;18.24;70.33
788;BME280;16074;42.708;23.312;2023-05-07T07:28:34;142800.81;;;18.56;67.84
788;BME280;16074;42.708;23.312;2023-05-07T07:31:03;142879.66;;;18.88;67.09
788;BME280;16074;42.708;23.312;2023-05-07T07:33:33;142976.75;;;19.28;65.29
788;BME280;16074;42.708;23.312;2023-05-07T07:36:01;143052.03;;;19.59;64.88
788;BME280;16074;42.708;23.312;2023-05-07T07:38:29;143184.41;;;20.13;61.29
788;BME280;16074;42.708;23.312;2023-05-07T07:40:58;143281.63;;;20.53;57.91
788;BME280;16074;42.708;23.312;2023-05-07T07:43:27;143292.53;;;20.57;57.44
788;BME280;16074;42.708;23.312;2023-05-07T07:45:56;143319.28;;;20.68;56.58
788;BME280;16074;42.708;23.312;2023-05-07T07:48:25;143321.72;;;20.69;56.72
788;BME280;16074;42.708;23.312;2023-05-07T07:50:56;143416.53;;;21.08;54.59
788;BME280;16074;42.708;23.312;2023-05-07T07:53:24;143479.75;;;21.34;53.63
788;BME280;16074;42.708;23.312;2023-05-07T07:55:52;143437.22;;;21.17;53.86
788;BME280;16074;42.708;23.312;2023-05-07T07:58:29;143462.75;;;21.27;52.57
788;BME280;16074;42.708;23.312;2023-05-07T08:00:58;143529.59;;;21.55;51.76
788;BME280;16074;42.708;23.312;2023-05-07T08:03:27;143603.84;;;21.85;50.72
788;BME280;16074;42.708;23.312;2023-05-07T08:06:01;143652.50;;;22.05;50.04
788;BME280;16074;42.708;23.312;2023-05-07T08:08:30;143662.25;;;22.09;50.25
788;BME280;16074;42.708;23.312;2023-05-07T08:10:59;143734.03;;;22.38;49.37
788;BME280;16074;42.708;23.312;2023-05-07T08:13:31;143747.44;;;22.44;48.88
788;BME280;16074;42.708;23.312;2023-05-07T08:15:59;143790.03;;;22.61;48.76
788;BME280;16074;42.708;23.312;2023-05-07T08:18:28;143861.84;;;22.91;47.58
788;BME280;16074;42.708;23.312;2023-05-07T08:21:02;143910.59;;;23.10;46.68
788;BME280;16074;42.708;23.312;2023-05-07T08:23:31;143838.72;;;22.81;48.07
788;BME280;16074;42.708;23.312;2023-05-07T08:26:02;143905.72;;;23.08;48.09
788;BME280;16074;42.708;23.312;2023-05-07T08:28:30;143964.16;;;23.32;47.48
788;BME280;16074;42.708;23.312;2023-05-07T08:30:58;144044.56;;;23.65;46.61
788;BME280;16074;42.708;23.312;2023-05-07T08:33:32;144112.81;;;23.93;45.57
788;BME280;16074;42.708;23.312;2023-05-07T08:36:02;144088.44;;;23.83;44.96
788;BME280;16074;42.708;23.312;2023-05-07T08:38:31;144075.00;;;23.78;45.08
788;BME280;16074;42.708;23.312;2023-05-07T08:41:00;144204.22;;;24.30;44.40
788;BME280;16074;42.708;23.312;2023-05-07T08:43:31;144070.13;;;23.76;43.59
788;BME280;16074;42.708;23.312;2023-05-07T08:46:02;144189.56;;;24.24;43.55
788;BME280;16074;42.708;23.312;2023-05-07T08:48:37;144232.22;;;24.42;42.88
788;BME280;16074;42.708;23.312;2023-05-07T08:51:15;144259.09;;;24.53;41.92
788;BME280;16074;42.708;23.312;2023-05-07T08:53:46;144243.22;;;24.46;42.03
788;BME280;16074;42.708;23.312;2023-05-07T08:56:20;144315.19;;;24.76;41.50
788;BME280;16074;42.708;23.312;2023-05-07T08:58:50;144464.03;;;25.37;39.92
788;BME280;16074;42.708;23.312;2023-05-07T09:01:24;144583.63;;;25.85;39.64
788;BME280;16074;42.708;23.312;2023-05-07T09:03:54;144656.81;;;26.15;37.97
788;BME280;16074;42.708;23.312;2023-05-07T09:06:24;144695.91;;;26.31;37.83
788;BME280;16074;42.708;23.312;2023-05-07T09:08:54;144728.91;;;26.45;37.48
788;BME280;16074;42.708;23.312;2023-05-07T09:11:26;144822.91;;;26.83;36.75
788;BME280;16074;42.708;23.312;2023-05-07T09:13:57;144865.66;;;27.00;36.05
788;BME280;16074;42.708;23.312;2023-05-07T09:16:31;144907.25;;;27.17;35.43
788;BME280;16074;42.708;23.312;2023-05-07T09:19:00;144975.69;;;27.45;34.81
788;BME280;16074;42.708;23.312;2023-05-07T09:21:30;145029.47;;;27.67;35.05
788;BME280;16074;42.708;23.312;2023-05-07T09:24:01;144985.41;;;27.49;34.85
788;BME280;16074;42.708;23.312;2023-05-07T09:26:35;145000.09;;;27.55;35.14
788;BME280;16074;42.708;23.312;2023-05-07T09:29:05;145072.22;;;27.85;33.65
788;BME280;16074;42.708;23.312;2023-05-07T09:31:36;145008.66;;;27.59;34.64
788;BME280;16074;42.708;23.312;2023-05-07T09:34:06;145045.38;;;27.74;33.95
788;BME280;16074;42.708;23.312;2023-05-07T09:36:38;145029.47;;;27.67;33.45
788;BME280;16074;42.708;23.312;2023-05-07T09:39:07;145057.56;;;27.79;34.08
788;BME280;16074;42.708;23.312;2023-05-07T09:41:43;145133.38;;;28.09;33.48
788;BME280;16074;42.708;23.312;2023-05-07T09:44:34;145095.50;;;27.94;33.18
788;BME280;16074;42.708;23.312;2023-05-07T09:47:06;145166.38;;;28.23;33.09
788;BME280;16074;42.708;23.312;2023-05-07T09:49:42;145151.69;;;28.17;33.62
788;BME280;16074;42.708;23.312;2023-05-07T09:52:20;145231.22;;;28.49;32.55
788;BME280;16074;42.708;23.312;2023-05-07T09:54:52;145292.38;;;28.74;31.68
788;BME280;16074;42.708;23.312;2023-05-07T09:57:25;145139.47;;;28.12;31.58
788;BME280;16074;42.708;23.312;2023-05-07T09:59:59;144936.56;;;27.29;32.38
788;BME280;16074;42.708;23.312;2023-05-07T10:02:35;145014.75;;;27.61;31.70
788;BME280;16074;42.708;23.312;2023-05-07T10:05:05;144941.47;;;27.31;32.38
788;BME280;16074;42.708;23.312;2023-05-07T10:07:35;144860.78;;;26.98;32.70
788;BME280;16074;42.708;23.312;2023-05-07T10:10:08;144946.34;;;27.33;32.32
788;BME280;16074;42.708;23.312;2023-05-07T10:12:41;145018.44;;;27.63;31.90
788;BME280;16074;42.708;23.312;2023-05-07T10:15:15;145078.38;;;27.87;31.66
788;BME280;16074;42.708;23.312;2023-05-07T10:17:49;145205.53;;;28.39;31.25
788;BME280;16074;42.708;23.312;2023-05-07T10:20:18;145335.22;;;28.92;28.69
788;BME280;16074;42.708;23.312;2023-05-07T10:22:48;145449.00;;;29.38;28.87
788;BME280;16074;42.708;23.312;2023-05-07T10:25:28;145644.91;;;30.18;28.13
788;BME280;16074;42.708;23.312;2023-05-07T10:28:06;145785.81;;;30.75;27.26
788;BME280;16074;42.708;23.312;2023-05-07T10:30:45;145951.25;;;31.42;25.76
788;BME280;16074;42.708;23.312;2023-05-07T10:33:19;145752.72;;;30.61;26.52
788;BME280;16074;42.708;23.312;2023-05-07T10:35:51;145810.34;;;30.85;26.91
788;BME280;16074;42.708;23.312;2023-05-07T10:38:21;145818.88;;;30.88;27.07
788;BME280;16074;42.708;23.312;2023-05-07T10:40:50;145975.78;;;31.52;26.29
788;BME280;16074;42.708;23.312;2023-05-07T10:43:18;146111.88;;;32.07;25.77
788;BME280;16074;42.708;23.312;2023-05-07T10:46:15;146266.50;;;32.70;25.53
788;BME280;16074;42.708;23.312;2023-05-07T10:49:09;146267.75;;;32.71;25.33
788;BME280;16074;42.708;23.312;2023-05-07T10:52:11;146397.84;;;33.23;25.62
788;BME280;16074;42.708;23.312;2023-05-07T10:54:43;146383.09;;;33.17;25.28
788;BME280;16074;42.708;23.312;2023-05-07T10:57:33;146553.75;;;33.87;24.41
788;BME280;16074;42.708;23.312;2023-05-07T11:00:41;146722.06;;;34.55;23.41
788;BME280;16074;42.708;23.312;2023-05-07T11:03:18;146750.34;;;34.66;23.48
788;BME280;16074;42.708;23.312;2023-05-07T11:06:19;146912.59;;;35.32;23.28
788;BME280;16074;42.708;23.312;2023-05-07T11:08:56;146929.78;;;35.39;23.11
788;BME280;16074;42.708;23.312;2023-05-07T11:11:46;146868.31;;;35.14;23.18
788;BME280;16074;42.708;23.312;2023-05-07T11:14:44;146890.44;;;35.23;22.95
788;BME280;16074;42.708;23.312;2023-05-07T11:17:17;146939.59;;;35.43;22.59
788;BME280;16074;42.708;23.312;2023-05-07T11:19:53;147018.31;;;35.75;22.44
788;BME280;16074;42.708;23.312;2023-05-07T11:23:00;146858.50;;;35.10;22.16
788;BME280;16074;42.708;23.312;2023-05-07T11:25:45;146277.56;;;32.75;23.80
788;BME280;16074;42.708;23.312;2023-05-07T11:28:20;146243.16;;;32.61;23.93
788;BME280;16074;42.708;23.312;2023-05-07T11:30:58;145898.56;;;31.21;24.88
788;BME280;16074;42.708;23.312;2023-05-07T11:33:27;146002.78;;;31.63;24.07
788;BME280;16074;42.708;23.312;2023-05-07T11:35:59;145861.75;;;31.06;24.50
788;BME280;16074;42.708;23.312;2023-05-07T11:38:35;145996.66;;;31.61;24.31
788;BME280;16074;42.708;23.312;2023-05-07T11:41:07;145990.50;;;31.58;24.97
788;BME280;16074;42.708;23.312;2023-05-07T11:43:36;145978.22;;;31.53;24.83
788;BME280;16074;42.708;23.312;2023-05-07T11:46:08;145990.50;;;31.58;24.51
788;BME280;16074;42.708;23.312;2023-05-07T11:48:37;146238.25;;;32.59;23.90
788;BME280;16074;42.708;23.312;2023-05-07T11:51:06;146368.31;;;33.11;23.10
788;BME280;16074;42.708;23.312;2023-05-07T11:53:36;146542.72;;;33.82;22.85
788;BME280;16074;42.708;23.312;2023-05-07T11:56:06;146363.41;;;33.09;23.59
788;BME280;16074;42.708;23.312;2023-05-07T11:58:36;146159.78;;;32.27;23.81
788;BME280;16074;42.708;23.312;2023-05-07T12:01:07;146195.31;;;32.41;23.69
788;BME280;16074;42.708;23.312;2023-05-07T12:03:37;146304.56;;;32.86;23.38
788;BME280;16074;42.708;23.312;2023-05-07T12:06:06;146394.13;;;33.22;22.60
788;BME280;16074;42.708;23.312;2023-05-07T12:08:36;146593.03;;;34.03;22.98
788;BME280;16074;42.708;23.312;2023-05-07T12:11:07;146717.16;;;34.53;22.35
788;BME280;16074;42.708;23.312;2023-05-07T12:13:37;146756.47;;;34.69;22.27
788;BME280;16074;42.708;23.312;2023-05-07T12:16:07;146797.00;;;34.85;21.18
788;BME280;16074;42.708;23.312;2023-05-07T12:18:36;146810.53;;;34.91;22.24
788;BME280;16074;42.708;23.312;2023-05-07T12:21:05;146841.25;;;35.03;22.22
788;BME280;16074;42.708;23.312;2023-05-07T12:23:35;147058.88;;;35.91;20.67
788;BME280;16074;42.708;23.312;2023-05-07T12:26:04;147167.13;;;36.35;20.14
788;BME280;16074;42.708;23.312;2023-05-07T12:28:39;147111.78;;;36.13;21.34
788;BME280;16074;42.708;23.312;2023-05-07T12:31:07;147057.69;;;35.91;20.61
788;BME280;16074;42.708;23.312;2023-05-07T12:33:35;147159.75;;;36.32;20.73
788;BME280;16074;42.708;23.312;2023-05-07T12:36:06;147238.53;;;36.64;20.03
788;BME280;16074;42.708;23.312;2023-05-07T12:38:36;147269.28;;;36.77;20.45
788;BME280;16074;42.708;23.312;2023-05-07T12:41:05;147328.41;;;37.01;20.24
788;BME280;16074;42.708;23.312;2023-05-07T12:43:34;147428.09;;;37.41;19.51
788;BME280;16074;42.708;23.312;2023-05-07T12:46:06;147467.47;;;37.57;20.15
788;BME280;16074;42.708;23.312;2023-05-07T12:48:36;147642.41;;;38.28;19.74
788;BME280;16074;42.708;23.312;2023-05-07T12:51:05;147774.25;;;38.81;19.69
788;BME280;16074;42.708;23.312;2023-05-07T12:53:39;147711.34;;;38.55;19.00
788;BME280;16074;42.708;23.312;2023-05-07T12:56:09;147680.56;;;38.43;19.05
788;BME280;16074;42.708;23.312;2023-05-07T12:58:37;147623.91;;;38.20;18.95
788;BME280;16074;42.708;23.312;2023-05-07T13:01:07;147720.00;;;38.59;19.49
788;BME280;16074;42.708;23.312;2023-05-07T13:03:37;147736.00;;;38.65;19.75
788;BME280;16074;42.708;23.312;2023-05-07T13:06:08;147901.19;;;39.32;18.51
788;BME280;16074;42.708;23.312;2023-05-07T13:08:40;147949.25;;;39.52;18.50
788;BME280;16074;42.708;23.312;2023-05-07T13:11:10;147971.47;;;39.61;18.43
788;BME280;16074;42.708;23.312;2023-05-07T13:13:41;147881.47;;;39.24;19.26
788;BME280;16074;42.708;23.312;2023-05-07T13:16:11;147985.06;;;39.66;18.50